Departure ICAO
Arrival ICAO

The revolutionary moving map for travelling passengers has finally arrived
More information here

LFMD Cannes Mandelieu - EGKB London Biggin Hill


Distance 545 NM


LFMN Nice Cote D'Azur VFR CAVOK

METAR LFMN 182300Z 34006KT CAVOK 07/00 Q1011 NOSIG

TAF LFMN 182000Z 1821/2003 33010KT CAVOK BECMG 1911/1913 10010KT BECMG 1918/1920 34010KT


LFMD Cannes Mandelieu VFR CAVOK

METAR LFMD 182300Z AUTO 26017KT CAVOK 13/02 Q1010

TAF LFMD 181400Z 1815/1915 26020KT CAVOK TEMPO 1815/1821 26020G30KT BECMG 1821/1823 26010KT TEMPO 1903/1915 26020KT PROB30 TEMPO 1907/1915 26020G30KT


LFLB Chambery Aix Les Bains VFR

METAR LFLB 182300Z AUTO 19013KT 170V230 9999 FEW036 BKN044 BKN060 05/04 Q1016

TAF LFLB 181700Z 1818/1918 20013KT 9999 OVC050 TEMPO 1818/1908 -RA PROB30 TEMPO 1903/1906 4000 RA BKN014 OVC030 BECMG 1904/1906 34012KT PROB30 TEMPO 1914/1918 -SHRA SCT030TCU


LFLS Grenoble Saint Geoirs VFR

METAR LFLS 182300Z AUTO 08009KT 9999 BKN048 OVC068 05/03 Q1016

TAF LFLS 181400Z 1815/1915 07006KT 9999 BKN060 PROB30 TEMPO 1815/1819 20010KT TEMPO 1815/1908 -RA BKN030 PROB40 TEMPO 1903/1907 3000 RA BKN013 BECMG 1903/1905 33012KT PROB40 TEMPO 1913/1915 -SHRA SCT030TCU


LFLL Lyon Saint Exupery VFR

METAR LFLL 182300Z 16010KT 9999 BKN040 10/04 Q1014 NOSIG

TAF LFLL 181700Z 1818/1924 18012KT 9999 OVC040 TEMPO 1818/1905 -RA PROB40 TEMPO 1902/1905 30010KT 5000 RA BKN015 BECMG 1905/1907 VRB02KT PROB40 TEMPO 1911/1918 32015KT -SHRA FEW020TCU BKN025


LFLY Lyon Bron VFR

METAR LFLY 182300Z AUTO 17013KT 9999 FEW046 BKN054 BKN064 10/05 Q1014 NOSIG

TAF LFLY 181700Z 1818/1918 18013KT 9999 OVC050 TEMPO 1818/1906 -RA PROB40 TEMPO 1901/1905 34010KT 4000 RA BKN014 OVC030 BECMG 1906/1909 VRB03KT PROB40 TEMPO 1912/1918 VRB10G20KT SHRA BKN025TCU


LFPO Paris Orly VFR

METAR LFPO 182300Z 29010KT 250V310 9999 FEW030 SCT090 07/03 Q1010 NOSIG

TAF LFPO 181700Z 1818/1924 26015G25KT 9999 SCT040 TEMPO 1818/1824 26018G30KT 4000 -SHRA BKN020 SCT025TCU TEMPO 1906/1910 4000 SHRA BKN012 SCT020CB PROB30 TEMPO 1906/1909 2500 -SHRASN BKN012CB PROB30 TEMPO 1910/1924 4000 SHRA BKN012 SCT025TCU


LFPG Paris Charles De Gaulle VFR CAVOK

METAR LFPG 182300Z 27011KT CAVOK 06/03 Q1009 NOSIG

TAF LFPG 181700Z 1818/1924 25010KT 9999 SCT033 PROB40 TEMPO 1818/1821 SCT015TCU TEMPO 1818/1824 27015G25KT BECMG 1906/1908 BKN013 TEMPO 1908/1912 24010G20KT 4000 SHRA SCT012CB BKN013 PROB30 TEMPO 1908/1912 2000 SHRASN BECMG 1912/1914 SCT020 BECMG 1922/1924 SCT012 BKN025 TX08/1818Z TN02/1905Z


LFPB Paris Le Bourget VFR

METAR LFPB 182300Z AUTO 27010KT 250V310 9999 FEW025 06/04 Q1009 TEMPO 27015G25KT

TAF LFPB 181700Z 1818/1918 25010KT 9999 SCT033 PROB40 TEMPO 1818/1821 SCT015TCU TEMPO 1818/1824 27015G25KT BECMG 1906/1908 BKN013 TEMPO 1908/1912 24010G20KT 4000 SHRA SCT012CB BKN013 PROB30 TEMPO 1908/1912 2000 SHRASN BECMG 1912/1914 SCT020


LFPV Villacoublay Velizy VFR CAVOK

METAR LFPV 182300Z AUTO 28014KT CAVOK 06/02 Q1009 TEMPO 28015G30KT

TAF LFPV 182000Z 1821/1921 25010KT 9999 BKN030 TEMPO 1821/1824 28015G30KT TEMPO 1906/1910 4000 DZRA BKN008 TEMPO 1911/1917 BKN020TCU


LFOB Beauvais Tille VFR

METAR LFOB 182300Z AUTO 27009KT 9999 FEW034 05/03 Q1008 TEMPO 27015G25KT

TAF LFOB 181700Z 1818/1918 27015G25KT 9999 SCT030 TEMPO 1818/1822 28020G35KT 4000 SHRA BKN015CB BECMG 1900/1903 26012KT PROB30 TEMPO 1906/1910 BKN010 TEMPO 1912/1918 27020G30KT 4000 SHRA BKN015CB


EGMD Lydd VFR

METAR EGMD 182250Z AUTO 27010KT 9999 NCD 04/01 Q1006

TAF EGMD 182001Z 1821/1906 26012KT 9999 FEW030


EGKA Shoreham By Sea Shoreham VFR

METAR EGKA 181950Z 29011KT 9999 FEW035 05/01 Q1005

TAF EGKA 181703Z 1818/1820 26014KT 9999 SCT030 PROB30 TEMPO 1818/1820 27017G27KT 4500 SHRA


EGKB London Biggin Hill VFR CAVOK

METAR EGKB 182220Z 26009KT 240V300 CAVOK 03/M00 Q1005

TAF EGKB 182001Z 1821/1823 26012KT 9999 FEW030


EGKK London Gatwick VFR CAVOK

METAR EGKK 182250Z 26011KT CAVOK 03/00 Q1006

TAF EGKK 181658Z 1818/1924 26012KT 9999 FEW030 PROB30 TEMPO 1913/1916 7000 SHRA


EGLC London City VFR

METAR EGLC 182250Z AUTO 26016KT 9999 NCD 05/M01 Q1006

TAF AMD EGLC 182026Z 1820/1822 27012KT 9999 SCT030 TEMPO 1820/1822 28015G25KT


EGSS London Stansted VFR

METAR EGSS 182250Z AUTO 26008KT 9999 NCD 03/M00 Q1005

TAF AMD EGSS 182006Z 1820/1924 27012KT 9999 FEW030 TEMPO 1820/1821 4000 SHRA TEMPO 1900/1909 21004KT TEMPO 1912/1918 28016G26KT


EGLL London Heathrow VFR

METAR EGLL 182250Z AUTO 26007KT 9999 NCD 04/M00 Q1007

TAF EGLL 181656Z 1818/1924 27010KT 9999 FEW040


EGWU Northolt VFR CAVOK

METAR EGWU 182250Z 27008KT CAVOK 03/M01 Q1006 BLU NOSIG

TAF EGWU 181919Z 1821/1915 27010KT 9999 FEW030


EGLF London Farnborough VFR CAVOK

METAR EGLF 182150Z 26008KT 240V300 CAVOK 03/01 Q1006

TAF EGLF 181703Z 1818/1822 26012KT 9999 SCT030 PROB30 TEMPO 1818/1820 27016G26KT 4500 SHRA



NOTAMS LFMD

 NOTAMS EGKB